createdAt,value
2023-05-07T00:01:59.014Z,12.60
2023-05-07T00:04:25.886Z,12.50
2023-05-07T00:06:52.650Z,12.50
2023-05-07T00:09:19.421Z,12.50
2023-05-07T00:11:46.329Z,12.40
2023-05-07T00:14:12.968Z,12.40
2023-05-07T00:16:39.597Z,12.40
2023-05-07T00:19:06.315Z,12.40
2023-05-07T00:21:32.957Z,12.50
2023-05-07T00:23:59.859Z,12.40
2023-05-07T00:26:26.454Z,12.40
2023-05-07T00:28:53.189Z,12.40
2023-05-07T00:31:19.882Z,12.40
2023-05-07T00:33:46.565Z,12.30
2023-05-07T00:36:13.289Z,12.30
2023-05-07T00:38:40.383Z,12.30
2023-05-07T00:41:07.538Z,12.30
2023-05-07T00:43:34.161Z,12.20
2023-05-07T00:46:01.567Z,12.20
2023-05-07T00:48:28.344Z,12.20
2023-05-07T00:50:55.306Z,12.20
2023-05-07T00:53:22.221Z,12.20
2023-05-07T00:55:49.717Z,12.20
2023-05-07T00:58:16.582Z,12.20
2023-05-07T01:00:43.507Z,12.10
2023-05-07T01:03:10.396Z,12.20
2023-05-07T01:05:37.516Z,12.20
2023-05-07T01:08:06.081Z,12.10
2023-05-07T01:10:33.011Z,12.10
2023-05-07T01:13:01.277Z,12.10
2023-05-07T01:15:28.373Z,12.10
2023-05-07T01:17:57.376Z,12.10
2023-05-07T01:20:31.218Z,12.00
2023-05-07T01:22:58.544Z,12.00
2023-05-07T01:25:25.760Z,11.90
2023-05-07T01:27:55.968Z,11.80
2023-05-07T01:30:27.109Z,11.90
2023-05-07T01:33:11.766Z,11.90
2023-05-07T01:35:42.600Z,11.90
2023-05-07T01:38:09.884Z,11.80
2023-05-07T01:40:36.660Z,11.80
2023-05-07T01:43:04.367Z,11.90
2023-05-07T01:45:33.272Z,11.90
2023-05-07T01:48:00.697Z,11.80
2023-05-07T01:50:28.476Z,11.90
2023-05-07T01:52:55.409Z,11.90
2023-05-07T01:55:22.182Z,11.90
2023-05-07T01:57:49.501Z,12.00
2023-05-07T02:00:16.623Z,11.90
2023-05-07T02:02:43.382Z,12.00
2023-05-07T02:05:20.816Z,11.80
2023-05-07T02:07:53.158Z,11.70
2023-05-07T02:10:19.876Z,11.60
2023-05-07T02:12:46.601Z,11.60
2023-05-07T02:15:13.342Z,11.60
2023-05-07T02:18:08.676Z,11.60
2023-05-07T02:20:35.807Z,11.70
2023-05-07T02:23:03.122Z,11.60
2023-05-07T02:25:30.974Z,11.50
2023-05-07T02:27:59.097Z,11.40
2023-05-07T02:30:38.550Z,11.40
2023-05-07T02:33:06.177Z,11.40
2023-05-07T02:35:32.976Z,11.40
2023-05-07T02:37:59.666Z,11.40
2023-05-07T02:40:26.824Z,11.30
2023-05-07T02:42:53.436Z,11.30
2023-05-07T02:45:20.199Z,11.30
2023-05-07T02:47:50.273Z,11.30
2023-05-07T02:50:17.258Z,11.20
2023-05-07T02:52:44.044Z,11.10
2023-05-07T02:55:11.505Z,11.10
2023-05-07T02:57:38.229Z,11.10
2023-05-07T03:00:24.568Z,11.10
2023-05-07T03:03:17.961Z,11.20
2023-05-07T03:05:44.781Z,11.10
2023-05-07T03:08:11.381Z,11.10
2023-05-07T03:10:38.262Z,11.10
2023-05-07T03:13:05.349Z,11.10
2023-05-07T03:15:32.436Z,11.10
2023-05-07T03:17:59.206Z,11.10
2023-05-07T03:20:26.453Z,11.00
2023-05-07T03:22:53.637Z,11.00
2023-05-07T03:25:20.326Z,11.00
2023-05-07T03:27:47.246Z,11.00
2023-05-07T03:30:14.152Z,11.00
2023-05-07T03:32:41.568Z,11.00
2023-05-07T03:35:11.759Z,11.00
2023-05-07T03:37:39.558Z,11.00
2023-05-07T03:40:07.063Z,10.90
2023-05-07T03:42:42.016Z,10.90
2023-05-07T03:45:10.014Z,10.80
2023-05-07T03:47:37.948Z,10.90
2023-05-07T03:50:06.647Z,10.90
2023-05-07T03:52:33.278Z,10.90
2023-05-07T03:55:02.087Z,10.80
2023-05-07T03:57:30.434Z,10.80
2023-05-07T03:59:59.361Z,10.90
2023-05-07T04:02:26.586Z,10.90
2023-05-07T04:04:53.537Z,10.90
2023-05-07T04:07:21.022Z,11.00
2023-05-07T04:09:50.484Z,10.80
2023-05-07T04:12:17.169Z,10.80
2023-05-07T04:14:43.836Z,10.80
2023-05-07T04:17:11.625Z,10.80
2023-05-07T04:19:38.873Z,10.80
2023-05-07T04:22:05.564Z,10.90
2023-05-07T04:24:36.236Z,10.80
2023-05-07T04:27:04.392Z,10.80
2023-05-07T04:29:31.087Z,10.80
2023-05-07T04:31:59.737Z,10.90
2023-05-07T04:34:27.613Z,10.80
2023-05-07T04:36:54.390Z,10.90
2023-05-07T04:39:21.099Z,10.90
2023-05-07T04:41:48.995Z,10.80
2023-05-07T04:44:15.797Z,10.80
2023-05-07T04:46:43.816Z,10.80
2023-05-07T04:49:11.161Z,10.70
2023-05-07T04:51:39.032Z,10.70
2023-05-07T04:54:06.011Z,10.70
2023-05-07T04:56:32.721Z,10.90
2023-05-07T04:59:00.990Z,10.90
2023-05-07T05:01:28.494Z,10.80
2023-05-07T05:03:55.471Z,10.90
2023-05-07T05:06:22.331Z,10.80
2023-05-07T05:08:50.077Z,10.90
2023-05-07T05:11:17.036Z,10.80
2023-05-07T05:13:43.725Z,10.90
2023-05-07T05:16:16.636Z,10.70
2023-05-07T05:18:43.402Z,10.70
2023-05-07T05:21:12.093Z,10.70
2023-05-07T05:23:40.422Z,10.70
2023-05-07T05:26:07.077Z,10.70
2023-05-07T05:28:34.688Z,10.70
2023-05-07T05:31:03.034Z,10.70
2023-05-07T05:33:33.541Z,10.80
2023-05-07T05:36:04.420Z,10.90
2023-05-07T05:38:31.340Z,10.80
2023-05-07T05:40:58.072Z,10.80
2023-05-07T05:43:24.810Z,10.70
2023-05-07T05:45:51.512Z,10.70
2023-05-07T05:48:18.526Z,10.60
2023-05-07T05:50:45.292Z,10.70
2023-05-07T05:53:12.320Z,10.70
2023-05-07T05:55:40.301Z,10.70
2023-05-07T05:58:06.959Z,10.70
2023-05-07T06:00:37.258Z,10.70
2023-05-07T06:03:05.999Z,10.60
2023-05-07T06:05:32.843Z,10.50
2023-05-07T06:07:59.467Z,10.50
2023-05-07T06:10:31.480Z,10.60
2023-05-07T06:12:58.531Z,10.70
2023-05-07T06:15:25.250Z,10.70
2023-05-07T06:17:52.784Z,10.80
2023-05-07T06:20:19.507Z,10.70
2023-05-07T06:22:46.193Z,10.80
2023-05-07T06:25:14.383Z,10.90
2023-05-07T06:27:42.981Z,10.90
2023-05-07T06:30:10.082Z,10.90
2023-05-07T06:32:37.733Z,10.90
2023-05-07T06:35:05.040Z,10.90
2023-05-07T06:37:31.734Z,11.00
2023-05-07T06:40:05.664Z,11.10
2023-05-07T06:42:34.482Z,11.20
2023-05-07T06:45:18.121Z,11.20
2023-05-07T06:47:44.793Z,11.40
2023-05-07T06:50:11.846Z,11.30
2023-05-07T06:52:39.250Z,11.40
2023-05-07T06:55:07.497Z,11.30
2023-05-07T06:57:34.135Z,11.20
2023-05-07T07:00:00.747Z,11.10
2023-05-07T07:02:27.425Z,11.10
2023-05-07T07:04:55.020Z,11.20
2023-05-07T07:07:21.760Z,11.20
2023-05-07T07:09:50.592Z,11.20
2023-05-07T07:12:19.047Z,11.30
2023-05-07T07:14:45.734Z,11.30
2023-05-07T07:17:13.364Z,11.30
2023-05-07T07:19:40.546Z,11.30
2023-05-07T07:22:07.362Z,11.30
2023-05-07T07:24:34.097Z,11.30
2023-05-07T07:27:04.240Z,11.40
2023-05-07T07:29:33.784Z,11.40
2023-05-07T07:32:00.665Z,11.40
2023-05-07T07:34:27.518Z,11.40
2023-05-07T07:36:54.308Z,11.40
2023-05-07T07:39:21.212Z,11.40
2023-05-07T07:41:50.671Z,11.60
2023-05-07T07:44:19.078Z,11.70
2023-05-07T07:46:51.526Z,11.80
2023-05-07T07:49:18.787Z,11.90
2023-05-07T07:51:45.521Z,12.00
2023-05-07T07:54:13.241Z,12.00
2023-05-07T07:56:40.781Z,12.00
2023-05-07T07:59:08.815Z,12.00
2023-05-07T08:01:38.590Z,12.00
2023-05-07T08:04:06.975Z,12.20
2023-05-07T08:06:37.521Z,12.20
2023-05-07T08:09:04.564Z,12.20
2023-05-07T08:11:31.589Z,12.30
2023-05-07T08:13:59.199Z,12.30
2023-05-07T08:16:26.185Z,12.50
2023-05-07T08:18:53.679Z,12.40
2023-05-07T08:21:21.081Z,12.30
2023-05-07T08:23:47.709Z,12.30
2023-05-07T08:26:14.469Z,12.50
2023-05-07T08:28:41.474Z,12.50
2023-05-07T08:31:08.547Z,12.60
2023-05-07T08:33:39.169Z,12.70
2023-05-07T08:36:06.774Z,12.80
2023-05-07T08:38:33.984Z,12.70
2023-05-07T08:41:01.069Z,12.80
2023-05-07T08:43:32.345Z,12.90
2023-05-07T08:46:03.151Z,12.90
2023-05-07T08:48:33.817Z,12.70
2023-05-07T08:51:07.639Z,13.00
2023-05-07T08:53:36.276Z,12.90
2023-05-07T08:56:03.717Z,12.80
2023-05-07T08:58:31.028Z,12.80
2023-05-07T09:00:58.310Z,12.80
2023-05-07T09:03:25.397Z,12.90
2023-05-07T09:05:54.863Z,13.00
2023-05-07T09:08:26.867Z,13.20
2023-05-07T09:10:55.471Z,13.20
2023-05-07T09:13:23.370Z,13.10
2023-05-07T09:15:50.599Z,13.00
2023-05-07T09:18:17.553Z,13.00
2023-05-07T09:20:46.909Z,12.90
2023-05-07T09:23:14.852Z,13.10
2023-05-07T09:25:43.583Z,13.30
2023-05-07T09:28:16.463Z,13.50
2023-05-07T09:30:43.182Z,13.60
2023-05-07T09:33:12.419Z,13.60
2023-05-07T09:35:42.590Z,13.70
2023-05-07T09:38:16.882Z,13.70
2023-05-07T09:40:43.552Z,13.50
2023-05-07T09:43:14.897Z,13.40
2023-05-07T09:45:56.105Z,13.40
2023-05-07T09:48:27.586Z,13.30
2023-05-07T09:51:00.901Z,13.40
2023-05-07T09:53:32.100Z,13.50
2023-05-07T09:56:03.723Z,13.80
2023-05-07T09:58:33.304Z,13.70
2023-05-07T10:01:01.694Z,14.10
2023-05-07T10:03:30.984Z,14.10
2023-05-07T10:06:04.318Z,14.30
2023-05-07T10:08:31.816Z,14.10
2023-05-07T10:11:01.141Z,14.20
2023-05-07T10:13:30.283Z,14.00
2023-05-07T10:15:59.302Z,14.40
2023-05-07T10:18:33.570Z,14.80
2023-05-07T10:21:16.945Z,14.60
2023-05-07T10:23:48.835Z,14.80
2023-05-07T10:26:18.077Z,14.60
2023-05-07T10:28:49.957Z,14.50
2023-05-07T10:31:46.138Z,14.80
2023-05-07T10:34:17.813Z,14.60
2023-05-07T10:36:45.909Z,14.90
2023-05-07T10:39:13.956Z,14.70
2023-05-07T10:41:41.357Z,14.50
2023-05-07T10:44:08.554Z,14.10
2023-05-07T10:46:36.937Z,14.10
2023-05-07T10:49:17.880Z,14.20
2023-05-07T10:52:18.601Z,14.70
2023-05-07T10:55:22.146Z,14.80
2023-05-07T10:58:31.358Z,14.70
2023-05-07T11:01:50.282Z,14.90
2023-05-07T11:04:25.136Z,14.80
2023-05-07T11:07:07.912Z,14.90
2023-05-07T11:09:52.719Z,14.70
2023-05-07T11:12:38.882Z,14.40
2023-05-07T11:15:13.236Z,14.50
2023-05-07T11:18:00.094Z,14.70
2023-05-07T11:20:55.530Z,14.60
2023-05-07T11:23:35.718Z,14.50
2023-05-07T11:26:12.610Z,14.50
2023-05-07T11:28:42.701Z,14.80
2023-05-07T11:31:11.628Z,14.90
2023-05-07T11:33:39.805Z,15.10
2023-05-07T11:36:10.750Z,15.50
2023-05-07T11:38:43.119Z,15.30
2023-05-07T11:41:09.817Z,15.00
2023-05-07T11:43:37.050Z,15.50
2023-05-07T11:46:12.618Z,15.60
2023-05-07T11:48:40.197Z,15.10
2023-05-07T11:51:09.692Z,15.20
2023-05-07T11:53:38.490Z,15.60
2023-05-07T11:56:16.343Z,15.40
2023-05-07T11:58:44.930Z,15.40
2023-05-07T12:01:13.026Z,15.40
2023-05-07T12:03:44.845Z,15.40
2023-05-07T12:06:12.752Z,15.70
2023-05-07T12:08:41.070Z,15.90
2023-05-07T12:11:15.588Z,16.10
2023-05-07T12:13:42.814Z,16.00
2023-05-07T12:16:10.270Z,15.80
2023-05-07T12:18:38.001Z,16.30
2023-05-07T12:21:06.144Z,16.30
2023-05-07T12:23:33.152Z,16.20
2023-05-07T12:26:00.805Z,15.70
2023-05-07T12:28:31.599Z,15.50
2023-05-07T12:30:58.787Z,15.50
2023-05-07T12:33:27.452Z,15.50
2023-05-07T12:35:56.546Z,15.50
2023-05-07T12:38:23.906Z,15.60
2023-05-07T12:40:56.917Z,15.40
2023-05-07T12:43:28.858Z,15.70
2023-05-07T12:45:58.293Z,15.70
2023-05-07T12:48:27.792Z,15.70
2023-05-07T12:50:55.250Z,15.90
2023-05-07T12:53:23.660Z,15.90
2023-05-07T12:55:52.702Z,16.30
2023-05-07T12:58:21.217Z,16.40
2023-05-07T13:00:52.004Z,16.30
2023-05-07T13:03:24.383Z,16.00
2023-05-07T13:05:52.544Z,16.00
2023-05-07T13:08:31.202Z,16.10
2023-05-07T13:10:59.985Z,15.80
2023-05-07T13:13:27.219Z,15.70
2023-05-07T13:15:54.756Z,15.60
2023-05-07T13:18:21.646Z,15.90
2023-05-07T13:20:48.705Z,16.30
2023-05-07T13:23:15.805Z,16.10
2023-05-07T13:25:42.748Z,16.30
2023-05-07T13:28:13.036Z,16.40
2023-05-07T13:34:43.049Z,16.40
2023-05-07T13:37:11.446Z,16.40
2023-05-07T13:39:38.332Z,16.60
2023-05-07T13:42:05.010Z,16.30
2023-05-07T13:44:31.577Z,16.30
2023-05-07T13:46:58.176Z,16.20
2023-05-07T13:49:25.187Z,16.40
2023-05-07T13:51:51.834Z,16.30
2023-05-07T13:54:18.630Z,16.30
2023-05-07T13:56:45.255Z,16.30
2023-05-07T13:59:11.902Z,16.60
2023-05-07T14:01:38.585Z,16.70
2023-05-07T14:04:05.442Z,16.90
2023-05-07T14:06:32.184Z,17.00
2023-05-07T14:08:59.030Z,17.40
2023-05-07T14:11:25.691Z,17.20
2023-05-07T14:13:52.341Z,17.10
2023-05-07T14:16:18.926Z,17.10
2023-05-07T14:18:45.665Z,16.90
2023-05-07T14:21:12.238Z,16.90
2023-05-07T14:23:38.905Z,16.60
2023-05-07T14:26:05.646Z,16.80
2023-05-07T14:28:32.339Z,16.90
2023-05-07T14:30:59.483Z,16.80
2023-05-07T14:33:26.133Z,16.60
2023-05-07T14:35:52.729Z,16.20
2023-05-07T14:38:20.785Z,16.20
2023-05-07T14:40:47.447Z,16.40
2023-05-07T14:43:14.058Z,16.50
2023-05-07T14:45:41.065Z,16.70
2023-05-07T14:48:07.710Z,16.40
2023-05-07T14:50:34.320Z,16.20
2023-05-07T14:53:00.976Z,16.20
2023-05-07T14:55:27.720Z,16.20
2023-05-07T14:57:54.351Z,16.00
2023-05-07T15:00:21.137Z,16.00
2023-05-07T15:02:47.862Z,16.00
2023-05-07T15:05:15.581Z,15.80
2023-05-07T15:07:42.192Z,15.70
2023-05-07T15:10:09.343Z,15.80
2023-05-07T15:12:36.064Z,15.80
2023-05-07T15:15:03.147Z,15.70
2023-05-07T15:17:29.812Z,15.80
2023-05-07T15:19:56.609Z,16.00
2023-05-07T15:22:23.262Z,15.90
2023-05-07T15:24:49.862Z,15.80
2023-05-07T15:27:17.896Z,15.90
2023-05-07T15:29:44.521Z,15.90
2023-05-07T15:32:11.534Z,15.90
2023-05-07T15:34:38.241Z,15.90
2023-05-07T15:37:04.874Z,15.80
2023-05-07T15:39:31.938Z,15.60
2023-05-07T15:41:58.602Z,15.60
2023-05-07T15:44:29.482Z,15.30
2023-05-07T15:46:56.144Z,15.20
2023-05-07T15:49:22.990Z,15.30
2023-05-07T15:51:51.627Z,15.20
2023-05-07T15:54:20.841Z,15.30
2023-05-07T15:56:47.964Z,15.50
2023-05-07T15:59:17.221Z,15.40
2023-05-07T16:01:44.995Z,15.50
2023-05-07T16:04:11.822Z,15.70
2023-05-07T16:06:38.468Z,15.60
2023-05-07T16:09:05.284Z,15.70
2023-05-07T16:11:33.691Z,15.70
2023-05-07T16:14:03.140Z,15.40
2023-05-07T16:16:33.717Z,15.30
2023-05-07T16:19:00.616Z,15.10
2023-05-07T16:21:27.338Z,15.10
2023-05-07T16:23:54.143Z,15.30
2023-05-07T16:26:21.075Z,15.40
2023-05-07T16:28:47.945Z,15.30
2023-05-07T16:31:14.748Z,15.30
2023-05-07T16:33:41.410Z,15.10
2023-05-07T16:36:08.153Z,14.80
2023-05-07T16:38:34.917Z,15.10
2023-05-07T16:41:01.645Z,14.90
2023-05-07T16:43:28.431Z,14.80
2023-05-07T16:45:55.234Z,14.80
2023-05-07T16:48:22.009Z,14.60
2023-05-07T16:50:48.710Z,14.60
2023-05-07T16:53:15.538Z,14.70
2023-05-07T16:55:42.357Z,14.60
2023-05-07T16:58:11.094Z,14.50
2023-05-07T17:00:49.160Z,14.30
2023-05-07T17:03:18.282Z,14.20
2023-05-07T17:05:45.301Z,14.20
2023-05-07T17:08:13.375Z,14.20
2023-05-07T17:10:40.158Z,14.20
2023-05-07T17:13:07.086Z,14.10
2023-05-07T17:15:33.730Z,14.00
2023-05-07T17:18:00.483Z,14.00
2023-05-07T17:20:27.137Z,14.20
2023-05-07T17:22:53.944Z,14.10
2023-05-07T17:25:20.900Z,14.20
2023-05-07T17:27:47.509Z,14.10
2023-05-07T17:30:15.613Z,14.10
2023-05-07T17:32:42.671Z,14.00
2023-05-07T17:35:09.689Z,13.90
2023-05-07T17:37:36.344Z,13.80
2023-05-07T17:40:03.493Z,13.60
2023-05-07T17:42:31.784Z,13.60
2023-05-07T17:44:58.449Z,13.50
2023-05-07T17:47:25.194Z,13.50
2023-05-07T17:49:51.895Z,13.40
2023-05-07T17:52:18.496Z,13.30
2023-05-07T17:54:45.116Z,13.40
2023-05-07T17:57:11.769Z,13.50
2023-05-07T17:59:39.103Z,13.60
2023-05-07T18:02:06.334Z,13.50
2023-05-07T18:04:32.959Z,13.30
2023-05-07T18:06:59.862Z,13.30
2023-05-07T18:09:26.535Z,13.20
2023-05-07T18:11:53.270Z,13.10
2023-05-07T18:14:23.912Z,13.10
2023-05-07T18:16:50.534Z,13.10
2023-05-07T18:19:17.370Z,13.00
2023-05-07T18:21:44.009Z,13.10
2023-05-07T18:24:11.077Z,13.00
2023-05-07T18:26:37.790Z,13.00
2023-05-07T18:29:04.410Z,13.00
2023-05-07T18:31:31.386Z,12.90
2023-05-07T18:33:57.989Z,12.90
2023-05-07T18:36:27.981Z,13.00
2023-05-07T18:38:54.999Z,12.90
2023-05-07T18:41:21.676Z,12.70
2023-05-07T18:43:48.337Z,12.70
2023-05-07T18:46:15.003Z,12.60
2023-05-07T18:48:41.721Z,12.70
2023-05-07T18:51:12.290Z,12.60
2023-05-07T18:53:40.162Z,12.50
2023-05-07T18:56:07.456Z,12.40
2023-05-07T18:58:34.719Z,12.40
2023-05-07T19:01:01.599Z,12.20
2023-05-07T19:03:28.395Z,12.10
2023-05-07T19:05:55.767Z,12.00
2023-05-07T19:08:22.382Z,11.90
2023-05-07T19:10:49.066Z,11.90
2023-05-07T19:13:15.750Z,11.80
2023-05-07T19:15:42.488Z,11.80
2023-05-07T19:18:09.248Z,11.70
2023-05-07T19:20:36.003Z,11.60
2023-05-07T19:23:03.073Z,11.50
2023-05-07T19:25:29.679Z,11.50
2023-05-07T19:27:57.058Z,11.40
2023-05-07T19:30:23.716Z,11.40
2023-05-07T19:32:50.377Z,11.40
2023-05-07T19:35:17.104Z,11.30
2023-05-07T19:37:43.710Z,11.10
2023-05-07T19:40:10.971Z,11.10
2023-05-07T19:42:37.858Z,11.10
2023-05-07T19:45:05.448Z,11.10
2023-05-07T19:47:32.242Z,10.90
2023-05-07T19:49:59.026Z,10.90
2023-05-07T19:52:26.404Z,10.90
2023-05-07T19:54:53.437Z,10.80
2023-05-07T19:57:20.245Z,10.80
2023-05-07T19:59:47.485Z,10.70
2023-05-07T20:02:15.130Z,10.60
2023-05-07T20:04:42.015Z,10.60
2023-05-07T20:07:08.766Z,10.60
2023-05-07T20:09:35.455Z,10.60
2023-05-07T20:12:02.185Z,10.60
2023-05-07T20:14:28.898Z,10.50
2023-05-07T20:16:55.610Z,10.50
2023-05-07T20:19:22.288Z,10.50
2023-05-07T20:21:48.929Z,10.40
2023-05-07T20:24:18.971Z,10.40
2023-05-07T20:26:46.259Z,10.40
2023-05-07T20:29:12.922Z,10.40
2023-05-07T20:31:40.254Z,10.40
2023-05-07T20:34:07.553Z,10.40
2023-05-07T20:36:34.244Z,10.40
2023-05-07T20:39:00.862Z,10.30
2023-05-07T20:41:27.651Z,10.20
2023-05-07T20:43:54.301Z,10.20
2023-05-07T20:46:22.492Z,10.20
2023-05-07T20:48:49.635Z,10.10
2023-05-07T20:51:16.428Z,10.10
2023-05-07T20:53:47.784Z,10.10
2023-05-07T20:56:15.258Z,10.10
2023-05-07T20:58:42.101Z,10.10
2023-05-07T21:01:08.827Z,10.00
2023-05-07T21:03:35.576Z,10.00
2023-05-07T21:06:02.939Z,10.10
2023-05-07T21:08:29.916Z,10.00
2023-05-07T21:10:57.720Z,10.00
2023-05-07T21:13:24.488Z,10.00
2023-05-07T21:15:51.357Z,9.90
2023-05-07T21:18:18.755Z,9.90
2023-05-07T21:20:45.697Z,9.90
2023-05-07T21:23:12.482Z,9.90
2023-05-07T21:25:40.825Z,9.90
2023-05-07T21:28:08.746Z,9.80
2023-05-07T21:30:36.428Z,9.80
2023-05-07T21:33:04.427Z,9.80
2023-05-07T21:35:32.162Z,9.80
2023-05-07T21:38:00.554Z,9.70
2023-05-07T21:40:27.139Z,9.80
2023-05-07T21:42:54.173Z,9.70
2023-05-07T21:45:20.850Z,9.70
2023-05-07T21:47:47.539Z,9.70
2023-05-07T21:50:14.546Z,9.70
2023-05-07T21:52:41.720Z,9.70
2023-05-07T21:55:08.788Z,9.70
2023-05-07T21:57:40.772Z,9.70
2023-05-07T22:00:09.140Z,9.70
2023-05-07T22:02:36.734Z,9.60
2023-05-07T22:05:04.463Z,9.60
2023-05-07T22:07:31.627Z,9.70
2023-05-07T22:09:58.264Z,9.70
2023-05-07T22:12:24.909Z,9.70
2023-05-07T22:14:51.563Z,9.60
2023-05-07T22:17:18.150Z,9.70
2023-05-07T22:19:45.267Z,9.70
2023-05-07T22:22:11.943Z,9.60
2023-05-07T22:24:38.541Z,9.50
2023-05-07T22:27:05.364Z,9.50
2023-05-07T22:29:31.954Z,9.60
2023-05-07T22:31:58.816Z,9.60
2023-05-07T22:34:25.884Z,9.50
2023-05-07T22:36:52.575Z,9.60
2023-05-07T22:39:19.592Z,9.50
2023-05-07T22:41:46.552Z,9.50
2023-05-07T22:44:13.761Z,9.50
2023-05-07T22:46:40.485Z,9.40
2023-05-07T22:49:07.171Z,9.40
2023-05-07T22:51:33.809Z,9.40
2023-05-07T22:54:00.424Z,9.50
2023-05-07T22:56:27.154Z,9.40
2023-05-07T22:58:53.781Z,9.50
2023-05-07T23:01:20.762Z,9.50
2023-05-07T23:03:47.721Z,9.50
2023-05-07T23:06:14.438Z,9.50
2023-05-07T23:08:41.041Z,9.50
2023-05-07T23:11:07.717Z,9.40
2023-05-07T23:13:34.311Z,9.40
2023-05-07T23:16:00.927Z,9.50
2023-05-07T23:18:27.995Z,9.50
2023-05-07T23:20:54.882Z,9.40
2023-05-07T23:23:21.959Z,9.40
2023-05-07T23:25:51.435Z,9.40
2023-05-07T23:28:18.314Z,9.40
2023-05-07T23:30:45.018Z,9.40
2023-05-07T23:33:11.672Z,9.40
2023-05-07T23:35:38.265Z,9.40
2023-05-07T23:38:04.861Z,9.40
2023-05-07T23:40:31.484Z,9.50
2023-05-07T23:42:58.135Z,9.40
2023-05-07T23:45:24.744Z,9.40
2023-05-07T23:47:51.523Z,9.50
2023-05-07T23:50:18.253Z,9.40
2023-05-07T23:52:44.838Z,9.50
2023-05-07T23:55:11.445Z,9.50
2023-05-07T23:57:38.065Z,9.50
